createdAt,value
2023-05-11T00:03:03.760Z,12.77
2023-05-11T00:08:05.871Z,12.77
2023-05-11T00:13:07.517Z,12.56
2023-05-11T00:18:09.241Z,12.48
2023-05-11T00:23:10.932Z,12.16
2023-05-11T00:28:12.977Z,12.00
2023-05-11T00:33:14.728Z,12.04
2023-05-11T00:38:16.708Z,11.90
2023-05-11T00:43:18.343Z,12.04
2023-05-11T00:48:19.947Z,12.04
2023-05-11T00:53:21.868Z,11.88
2023-05-11T00:58:23.799Z,11.99
2023-05-11T01:03:26.493Z,11.79
2023-05-11T01:08:42.416Z,11.49
2023-05-11T01:13:51.361Z,11.50
2023-05-11T01:18:58.662Z,11.56
2023-05-11T01:24:17.388Z,11.49
2023-05-11T01:29:41.033Z,11.21
2023-05-11T01:34:45.359Z,11.33
2023-05-11T01:40:01.189Z,11.15
2023-05-11T01:45:06.176Z,11.20
2023-05-11T01:50:09.460Z,11.22
2023-05-11T01:55:17.482Z,10.99
2023-05-11T02:00:19.681Z,10.81
2023-05-11T02:05:24.190Z,11.18
2023-05-11T02:10:27.977Z,11.09
2023-05-11T02:15:31.010Z,11.07
2023-05-11T02:20:33.514Z,10.80
2023-05-11T02:25:36.762Z,10.66
2023-05-11T02:30:46.646Z,10.86
2023-05-11T02:35:51.481Z,11.00
2023-05-11T02:40:57.490Z,10.88
2023-05-11T02:46:03.906Z,10.76
2023-05-11T02:51:08.429Z,10.45
2023-05-11T02:56:16.761Z,10.61
2023-05-11T03:01:19.850Z,10.22
2023-05-11T03:06:21.812Z,10.20
2023-05-11T03:11:24.408Z,10.39
2023-05-11T03:16:26.824Z,10.52
2023-05-11T03:21:29.837Z,10.35
2023-05-11T03:26:33.288Z,10.40
2023-05-11T03:31:35.077Z,10.59
2023-05-11T03:36:39.712Z,10.70
2023-05-11T03:41:44.602Z,10.62
2023-05-11T03:46:50.452Z,10.88
2023-05-11T03:51:53.339Z,11.00
2023-05-11T03:56:56.441Z,11.26
2023-05-11T04:01:58.840Z,11.57
2023-05-11T04:07:00.828Z,11.61
2023-05-11T04:12:02.680Z,11.68
2023-05-11T04:17:04.320Z,11.71
2023-05-11T04:22:05.994Z,11.85
2023-05-11T04:27:07.653Z,11.88
2023-05-11T04:32:09.286Z,12.07
2023-05-11T04:37:10.988Z,11.94
2023-05-11T04:42:13.448Z,12.25
2023-05-11T04:47:16.078Z,12.29
2023-05-11T04:52:17.790Z,12.17
2023-05-11T04:57:23.594Z,12.32
2023-05-11T05:02:25.686Z,12.75
2023-05-11T05:07:27.912Z,12.94
2023-05-11T05:12:30.928Z,13.01
2023-05-11T05:17:32.790Z,13.16
2023-05-11T05:22:34.886Z,13.40
2023-05-11T05:27:37.586Z,13.57
2023-05-11T05:32:42.800Z,13.81
2023-05-11T05:37:44.927Z,14.00
2023-05-11T05:42:46.774Z,14.23
2023-05-11T05:47:52.611Z,14.31
2023-05-11T05:52:55.691Z,14.19
2023-05-11T05:58:00.254Z,14.59
2023-05-11T06:03:02.112Z,14.65
2023-05-11T06:08:10.610Z,15.17
2023-05-11T06:13:13.769Z,15.78
2023-05-11T06:18:17.381Z,16.22
2023-05-11T06:23:19.790Z,16.36
2023-05-11T06:28:24.468Z,16.47
2023-05-11T06:33:29.371Z,16.66
2023-05-11T06:38:31.374Z,16.77
2023-05-11T06:43:33.653Z,16.74
2023-05-11T06:48:37.479Z,16.89
2023-05-11T06:53:39.294Z,17.07
2023-05-11T06:58:41.013Z,17.39
2023-05-11T07:03:42.578Z,17.65
2023-05-11T07:08:44.146Z,17.69
2023-05-11T07:13:45.922Z,17.83
2023-05-11T07:18:47.674Z,18.11
2023-05-11T07:23:49.358Z,18.34
2023-05-11T07:28:51.053Z,18.61
2023-05-11T07:33:53.298Z,19.24
2023-05-11T07:38:54.930Z,18.76
2023-05-11T07:43:56.886Z,18.37
2023-05-11T07:49:11.330Z,18.74
2023-05-11T07:54:18.812Z,19.20
2023-05-11T07:59:21.786Z,19.29
2023-05-11T08:04:23.409Z,19.33
2023-05-11T08:09:25.095Z,19.39
2023-05-11T08:14:26.912Z,19.51
2023-05-11T08:19:28.526Z,19.56
2023-05-11T08:24:30.135Z,19.51
2023-05-11T08:29:31.771Z,19.93
2023-05-11T08:34:33.468Z,19.94
2023-05-11T08:39:46.806Z,20.23
2023-05-11T08:44:49.984Z,20.38
2023-05-11T08:49:55.000Z,20.95
2023-05-11T08:54:56.754Z,20.83
2023-05-11T09:00:00.188Z,20.76
2023-05-11T09:05:04.638Z,20.95
2023-05-11T09:10:07.451Z,21.28
2023-05-11T09:15:09.599Z,21.48
2023-05-11T09:20:11.614Z,22.06
2023-05-11T09:25:17.502Z,22.14
2023-05-11T09:30:22.949Z,22.37
2023-05-11T09:35:33.906Z,22.35
2023-05-11T09:40:50.117Z,22.59
2023-05-11T09:45:55.110Z,22.77
2023-05-11T09:51:05.788Z,23.05
2023-05-11T09:56:07.682Z,22.99
2023-05-11T10:01:09.379Z,22.83
2023-05-11T10:06:11.085Z,22.13
2023-05-11T10:11:12.781Z,22.57
2023-05-11T10:16:16.422Z,23.06
2023-05-11T10:21:18.582Z,23.48
2023-05-11T10:26:20.431Z,23.62
2023-05-11T10:31:24.203Z,23.61
2023-05-11T10:36:26.418Z,23.43
2023-05-11T10:41:53.552Z,23.84
2023-05-11T10:47:32.379Z,23.65
2023-05-11T10:52:44.875Z,24.20
2023-05-11T10:57:54.852Z,24.33
2023-05-11T11:03:12.387Z,24.07
2023-05-11T11:08:14.213Z,23.48
2023-05-11T11:13:24.412Z,23.75
2023-05-11T11:18:31.260Z,23.97
2023-05-11T11:23:51.829Z,24.23
2023-05-11T11:29:02.383Z,24.23
2023-05-11T11:34:29.133Z,24.08
2023-05-11T11:39:50.798Z,23.94
2023-05-11T11:44:52.416Z,24.03
2023-05-11T11:49:55.556Z,24.00
2023-05-11T11:55:01.633Z,23.62
2023-05-11T12:00:06.897Z,24.08
2023-05-11T12:05:19.350Z,23.66
2023-05-11T12:10:22.990Z,22.67
2023-05-11T12:15:25.736Z,22.96
2023-05-11T12:20:27.421Z,22.76
2023-05-11T12:25:29.062Z,22.61
2023-05-11T12:30:34.741Z,22.37
2023-05-11T12:35:37.856Z,21.94
2023-05-11T12:40:40.036Z,21.62
2023-05-11T12:45:43.207Z,21.35
2023-05-11T12:50:46.398Z,21.23
2023-05-11T12:55:59.024Z,21.01
2023-05-11T13:01:00.789Z,20.46
2023-05-11T13:06:09.901Z,20.26
2023-05-11T13:11:23.077Z,20.28
2023-05-11T13:16:32.596Z,20.30
2023-05-11T13:21:34.473Z,20.61
2023-05-11T13:26:36.127Z,20.96
2023-05-11T13:31:45.873Z,21.01
2023-05-11T13:36:47.859Z,21.14
2023-05-11T13:41:49.592Z,21.25
2023-05-11T13:46:51.203Z,21.35
2023-05-11T13:51:53.030Z,21.73
2023-05-11T13:56:54.753Z,21.90
2023-05-11T14:01:56.578Z,22.07
2023-05-11T14:06:59.344Z,22.37
2023-05-11T14:12:01.089Z,22.43
2023-05-11T14:17:02.745Z,22.07
2023-05-11T14:22:04.594Z,22.06
2023-05-11T14:27:06.546Z,21.80
2023-05-11T14:32:08.171Z,21.57
2023-05-11T14:37:09.830Z,21.74
2023-05-11T14:42:11.442Z,21.62
2023-05-11T14:47:13.139Z,21.69
2023-05-11T14:52:14.788Z,21.67
2023-05-11T14:57:17.457Z,21.70
2023-05-11T15:02:19.086Z,21.56
2023-05-11T15:07:21.270Z,21.57
2023-05-11T15:12:23.440Z,21.29
2023-05-11T15:17:26.354Z,21.32
2023-05-11T15:22:27.940Z,21.08
2023-05-11T15:27:30.190Z,20.83
2023-05-11T15:32:32.055Z,20.80
2023-05-11T15:37:33.945Z,20.83
2023-05-11T15:42:35.569Z,20.99
2023-05-11T15:47:37.954Z,21.11
2023-05-11T15:52:43.011Z,21.02
2023-05-11T15:57:44.686Z,21.10
2023-05-11T16:02:48.711Z,21.09
2023-05-11T16:07:50.924Z,21.28
2023-05-11T16:12:52.599Z,20.99
2023-05-11T16:17:54.461Z,20.98
2023-05-11T16:22:56.221Z,20.72
2023-05-11T16:27:57.898Z,20.75
2023-05-11T16:32:59.587Z,20.70
2023-05-11T16:38:01.313Z,20.64
2023-05-11T16:43:02.946Z,20.34
2023-05-11T16:48:04.717Z,20.27
2023-05-11T16:53:06.432Z,20.26
2023-05-11T16:58:08.042Z,20.20
2023-05-11T17:03:09.743Z,20.22
2023-05-11T17:08:12.138Z,20.06
2023-05-11T17:13:13.821Z,19.83
2023-05-11T17:18:15.637Z,19.69
2023-05-11T17:23:17.281Z,19.91
2023-05-11T17:28:18.864Z,19.89
2023-05-11T17:33:20.633Z,19.80
2023-05-11T17:38:22.392Z,19.86
2023-05-11T17:43:24.245Z,19.55
2023-05-11T17:48:26.027Z,19.42
2023-05-11T17:53:27.672Z,19.39
2023-05-11T17:58:29.315Z,19.38
2023-05-11T18:03:31.205Z,19.32
2023-05-11T18:08:33.174Z,19.12
2023-05-11T18:13:35.583Z,18.69
2023-05-11T18:18:37.618Z,18.77
2023-05-11T18:23:39.302Z,18.82
2023-05-11T18:28:40.907Z,18.62
2023-05-11T18:33:42.502Z,18.52
2023-05-11T18:38:44.660Z,18.43
2023-05-11T18:43:48.304Z,18.45
2023-05-11T18:48:50.508Z,18.17
2023-05-11T18:53:52.251Z,18.21
2023-05-11T18:58:53.972Z,18.18
2023-05-11T19:03:56.217Z,18.00
2023-05-11T19:08:57.843Z,18.02
2023-05-11T19:13:59.561Z,17.97
2023-05-11T19:19:02.616Z,17.72
2023-05-11T19:24:04.580Z,17.63
2023-05-11T19:29:07.223Z,17.61
2023-05-11T19:34:08.990Z,17.62
2023-05-11T19:39:10.662Z,17.36
2023-05-11T19:44:12.266Z,17.18
2023-05-11T19:49:15.232Z,17.07
2023-05-11T19:54:20.556Z,17.15
2023-05-11T19:59:22.424Z,17.11
2023-05-11T20:04:24.146Z,17.13
2023-05-11T20:09:26.242Z,17.24
2023-05-11T20:14:27.901Z,16.92
2023-05-11T20:19:29.489Z,16.80
2023-05-11T20:24:31.367Z,16.71
2023-05-11T20:29:33.182Z,16.63
2023-05-11T20:34:35.559Z,16.50
2023-05-11T20:39:37.215Z,16.67
2023-05-11T20:44:38.827Z,16.75
2023-05-11T20:49:40.433Z,16.39
2023-05-11T20:54:42.200Z,16.42
2023-05-11T21:04:48.605Z,16.31
2023-05-11T21:09:50.321Z,16.00
2023-05-11T21:14:51.936Z,15.94
2023-05-11T21:19:53.609Z,15.91
2023-05-11T21:24:55.220Z,15.94
2023-05-11T21:29:56.872Z,16.00
2023-05-11T21:34:58.456Z,15.81
2023-05-11T21:40:00.649Z,15.96
2023-05-11T21:45:03.467Z,15.80
2023-05-11T21:50:07.666Z,15.76
2023-05-11T21:55:09.944Z,15.51
2023-05-11T22:00:18.228Z,15.78
2023-05-11T22:05:20.637Z,15.64
2023-05-11T22:10:23.881Z,15.46
2023-05-11T22:15:25.475Z,15.37
2023-05-11T22:20:27.140Z,15.35
2023-05-11T22:25:28.802Z,15.34
2023-05-11T22:30:30.697Z,15.41
2023-05-11T22:35:32.350Z,15.21
2023-05-11T22:40:33.963Z,15.08
2023-05-11T22:45:36.620Z,15.29
2023-05-11T22:50:46.474Z,15.05
2023-05-11T22:55:48.362Z,15.23
2023-05-11T23:00:54.539Z,15.28
2023-05-11T23:05:56.500Z,14.80
2023-05-11T23:10:58.142Z,14.87
2023-05-11T23:15:59.989Z,15.08
2023-05-11T23:21:01.626Z,14.90
2023-05-11T23:26:03.370Z,15.06
2023-05-11T23:31:05.092Z,14.87
2023-05-11T23:36:07.598Z,14.49
2023-05-11T23:41:09.283Z,14.39
2023-05-11T23:46:11.300Z,14.42
2023-05-11T23:51:13.039Z,14.41
2023-05-11T23:56:14.779Z,14.44
